Farlington, KS (66734)

11:48 AM CDT on September 04, 2015 (GMT -0500)
Downtown | | Change Station
CLOSE
Current Station
Personal Weather Station
Location: Girard, KS
Elevation: 1001 ft
Nearby Weather Stations

Elev 1001 ft 37.51 °N, 94.84 °W | Updated 18 seconds ago

Clear
Clear
87.3 °F
Feels Like 92 °F
N
0.2
Wind Variable Wind from SW
Gusts 2.5 mph

Today
High -- | Low -- °F
--% Chance of Precip.
Yesterday
High -- | Low -- °F
Precip. -- in
6:51 AM 7:44 PM
Waning Gibbous, 58% visible
Pressure 29.98 in
Visibility 10.0 miles
Clouds Clear
Heat Index 92 °F
Dew Point 69 °F
Humidity 55%
Rainfall 0.00 in
Snow Depth Not available.
UV 2.0 out of 12
Pollen 11.10 out of 12
Air Quality Not available.
Flu Activity Not available.
METAR KCNU 041552Z AUTO 19011KT 10SM CLR 29/21 A3002 RMK AO2 SLP152 T02890211
Pressure 29.98 in
Visibility 10.0 miles
Clouds Clear
Heat Index 92 °F
Dew Point 69 °F
Humidity 55%
Rainfall 0.00 in
Snow Depth Not available.
UV 2.0 out of 12
Pollen 11.10 out of 12
Air Quality Not available.
Flu Activity Not available.
METAR KCNU 041552Z AUTO 19011KT 10SM CLR 29/21 A3002 RMK AO2 SLP152 T02890211

10-Day Weather Forecast

×

Almanac

Astronomy

Sep. 04, 2015 Rise Set
Actual Time
Civil Twilight
Nautical Twilight
Astronomical Twilight
Moon
Length of Visible Light
Length of Day
Tomorrow will be .
, % of the Moon is Illuminated

Today's Extremes

State Highs State Lows

Community

WunderPhotos

Upload Photos

1,852,226 photos uploaded!

WunderBlogs® & News

Nearby

Air Quality

  Air Quality AQ Index Pollutant
Not available.

Snow Depth

Station Depth Elevation

Earthquake Activity

City Distance Mag. Time & Date
Minimum magnitude displayed is 2.5.

Coastal Water Temperatures

Place Temperature

Stations

Nearby Weather Stations

Station Location Temp. Windchill Dew Point Humidity Wind Precip. Elev Updated Type